createdAt,value
2019-02-09T00:01:47.050Z,4.60
2019-02-09T00:06:53.185Z,3.37
2019-02-09T00:11:58.758Z,3.23
2019-02-09T00:17:05.539Z,2.63
2019-02-09T00:22:11.298Z,2.50
2019-02-09T00:27:16.897Z,2.87
2019-02-09T00:32:22.473Z,2.27
2019-02-09T00:37:29.118Z,2.40
2019-02-09T00:42:35.932Z,2.43
2019-02-09T00:47:41.509Z,2.53
2019-02-09T00:52:47.012Z,2.47
2019-02-09T00:57:53.195Z,3.53
2019-02-09T01:02:59.161Z,2.53
2019-02-09T01:08:05.560Z,2.73
2019-02-09T01:13:11.079Z,2.53
2019-02-09T01:18:16.661Z,2.63
2019-02-09T01:23:23.787Z,2.70
2019-02-09T01:28:30.596Z,2.23
2019-02-09T01:33:38.493Z,3.07
2019-02-09T01:38:44.154Z,2.30
2019-02-09T01:43:50.139Z,2.30
2019-02-09T01:48:56.222Z,2.80
2019-02-09T01:54:01.731Z,2.20
2019-02-09T01:59:07.377Z,2.37
2019-02-09T02:04:12.950Z,2.60
2019-02-09T02:09:18.786Z,2.23
2019-02-09T02:14:24.323Z,2.33
2019-02-09T02:19:30.030Z,2.23
2019-02-09T02:24:35.585Z,2.77
2019-02-09T02:29:41.679Z,3.03
2019-02-09T02:34:47.190Z,2.90
2019-02-09T02:39:53.122Z,2.60
2019-02-09T02:45:00.379Z,2.40
2019-02-09T02:50:08.165Z,1.90
2019-02-09T02:55:21.388Z,1.90
2019-02-09T03:00:32.124Z,1.90
2019-02-09T03:05:36.469Z,2.13
2019-02-09T03:10:44.131Z,1.97
2019-02-09T03:15:50.140Z,2.20
2019-02-09T03:20:58.289Z,2.27
2019-02-09T03:26:03.955Z,2.23
2019-02-09T03:31:09.521Z,1.90
2019-02-09T03:36:16.024Z,2.77
2019-02-09T03:41:22.155Z,2.20
2019-02-09T03:46:27.798Z,2.23
2019-02-09T03:51:33.435Z,2.30
2019-02-09T03:56:39.027Z,2.37
2019-02-09T04:01:44.596Z,2.03
2019-02-09T04:06:51.330Z,1.87
2019-02-09T04:11:58.311Z,2.20
2019-02-09T04:17:04.986Z,2.00
2019-02-09T04:22:10.523Z,2.00
2019-02-09T04:27:16.061Z,1.83
2019-02-09T04:32:21.616Z,1.90
2019-02-09T04:37:29.999Z,2.40
2019-02-09T04:42:37.610Z,3.30
2019-02-09T04:47:43.820Z,2.50
2019-02-09T04:52:49.647Z,2.63
2019-02-09T04:57:55.254Z,2.90
2019-02-09T05:03:01.380Z,2.63
2019-02-09T05:08:07.089Z,2.60
2019-02-09T05:13:14.326Z,3.10
2019-02-09T05:18:20.154Z,3.00
2019-02-09T05:23:25.758Z,2.30
2019-02-09T05:28:31.727Z,2.57
2019-02-09T05:33:37.594Z,2.70
2019-02-09T05:38:43.129Z,2.90
2019-02-09T05:43:49.620Z,2.87
2019-02-09T05:48:55.598Z,2.60
2019-02-09T05:54:04.570Z,2.67
2019-02-09T05:59:12.254Z,2.83
2019-02-09T06:04:17.910Z,2.70
2019-02-09T06:09:23.439Z,2.67
2019-02-09T06:14:29.028Z,3.00
2019-02-09T06:19:34.626Z,2.00
2019-02-09T06:24:40.145Z,2.13
2019-02-09T06:29:45.707Z,1.60
2019-02-09T06:34:51.565Z,1.67
2019-02-09T06:39:57.108Z,1.73
2019-02-09T06:45:03.239Z,1.60
2019-02-09T06:50:11.039Z,1.70
2019-02-09T06:55:17.220Z,2.13
2019-02-09T07:00:22.966Z,1.47
2019-02-09T07:05:28.976Z,2.03
2019-02-09T07:10:44.661Z,2.30
2019-02-09T07:15:50.737Z,2.40
2019-02-09T07:20:56.329Z,1.30
2019-02-09T07:26:02.501Z,2.00
2019-02-09T07:31:08.455Z,1.70
2019-02-09T07:36:14.523Z,2.20
2019-02-09T07:41:20.219Z,2.30
2019-02-09T07:46:26.626Z,2.50
2019-02-09T07:51:35.003Z,2.97
2019-02-09T07:56:44.304Z,2.57
2019-02-09T08:01:50.441Z,2.17
2019-02-09T08:06:59.350Z,1.90
2019-02-09T08:12:08.423Z,1.93
2019-02-09T08:17:22.105Z,2.37
2019-02-09T08:22:29.319Z,2.37
2019-02-09T08:27:37.337Z,2.20
2019-02-09T08:32:45.319Z,2.90
2019-02-09T08:37:51.225Z,1.90
2019-02-09T08:42:58.514Z,2.30
2019-02-09T08:48:05.554Z,1.90
2019-02-09T08:53:11.504Z,1.60
2019-02-09T08:58:20.107Z,1.70
2019-02-09T09:03:33.930Z,1.60
2019-02-09T09:08:34.884Z,1.40
2019-02-09T09:13:40.705Z,1.60
2019-02-09T09:18:46.622Z,1.63
2019-02-09T09:23:52.410Z,1.53
2019-02-09T09:28:58.277Z,1.57
2019-02-09T09:34:05.527Z,1.70
2019-02-09T09:39:12.392Z,1.83
2019-02-09T09:44:18.279Z,1.77
2019-02-09T09:49:29.583Z,1.50
2019-02-09T09:54:35.232Z,1.70
2019-02-09T09:59:45.476Z,1.47
2019-02-09T10:04:53.665Z,1.67
2019-02-09T10:10:01.432Z,1.53
2019-02-09T10:15:09.874Z,1.43
2019-02-09T10:20:20.728Z,1.03
2019-02-09T10:25:30.338Z,1.07
2019-02-09T10:30:36.181Z,1.30
2019-02-09T10:35:41.986Z,1.47
2019-02-09T10:40:49.326Z,1.23
2019-02-09T10:45:56.133Z,1.20
2019-02-09T10:51:08.305Z,1.20
2019-02-09T10:56:14.141Z,1.13
2019-02-09T11:01:25.130Z,1.10
2019-02-09T11:06:35.361Z,1.10
2019-02-09T11:11:46.036Z,1.37
2019-02-09T11:16:52.902Z,1.17
2019-02-09T11:21:58.734Z,1.10
2019-02-09T11:27:10.642Z,1.30
2019-02-09T11:32:20.331Z,1.47
2019-02-09T11:37:31.277Z,1.47
2019-02-09T11:42:41.087Z,1.93
2019-02-09T11:47:48.406Z,1.30
2019-02-09T11:52:54.679Z,1.40
2019-02-09T11:58:06.063Z,1.20
2019-02-09T12:03:15.844Z,1.10
2019-02-09T12:08:22.850Z,1.17
2019-02-09T12:13:32.737Z,1.80
2019-02-09T12:18:39.538Z,1.40
2019-02-09T12:23:45.361Z,1.57
2019-02-09T12:28:52.930Z,1.60
2019-02-09T12:34:01.464Z,1.17
2019-02-09T12:39:11.593Z,1.30
2019-02-09T12:44:17.426Z,1.20
2019-02-09T12:49:24.723Z,1.07
2019-02-09T12:54:30.497Z,1.20
2019-02-09T12:59:36.413Z,1.10
2019-02-09T13:04:46.539Z,1.30
2019-02-09T13:09:53.533Z,1.30
2019-02-09T13:15:06.482Z,1.33
2019-02-09T13:20:11.179Z,1.20
2019-02-09T13:25:17.383Z,1.03
2019-02-09T13:30:26.087Z,1.37
2019-02-09T13:35:36.301Z,0.90
2019-02-09T13:40:42.589Z,0.93
2019-02-09T13:45:55.453Z,1.10
2019-02-09T13:51:06.722Z,0.87
2019-02-09T13:56:16.228Z,1.10
2019-02-09T14:01:25.798Z,1.00
2019-02-09T14:06:33.321Z,0.90
2019-02-09T14:11:42.970Z,1.30
2019-02-09T14:16:49.750Z,1.30
2019-02-09T14:21:59.308Z,0.90
2019-02-09T14:27:22.221Z,1.27
2019-02-09T14:32:34.519Z,1.00
2019-02-09T14:37:43.031Z,1.30
2019-02-09T14:42:53.772Z,1.60
2019-02-09T14:47:59.534Z,1.33
2019-02-09T14:53:08.211Z,1.90
2019-02-09T14:58:14.452Z,1.50
2019-02-09T15:03:26.939Z,1.13
2019-02-09T15:08:32.488Z,1.20
2019-02-09T15:13:39.952Z,1.20
2019-02-09T15:18:48.312Z,1.20
2019-02-09T15:23:54.507Z,1.10
2019-02-09T15:29:02.867Z,1.10
2019-02-09T15:34:10.373Z,1.00
2019-02-09T15:39:17.734Z,1.10
2019-02-09T15:54:38.531Z,1.73
2019-02-09T15:59:50.038Z,1.00
2019-02-09T16:05:00.393Z,1.43
2019-02-09T16:10:11.004Z,1.37
2019-02-09T16:15:21.354Z,1.00
2019-02-09T16:20:28.081Z,1.23
2019-02-09T16:25:41.976Z,1.87
2019-02-09T16:30:50.235Z,1.33
2019-02-09T16:35:56.367Z,1.20
2019-02-09T16:41:04.607Z,1.20
2019-02-09T16:46:16.423Z,1.20
2019-02-09T16:51:22.687Z,1.70
2019-02-09T16:56:28.867Z,1.57
2019-02-09T17:01:35.709Z,1.20
2019-02-09T17:06:41.740Z,1.57
2019-02-09T17:11:50.581Z,1.70
2019-02-09T17:16:57.717Z,1.27
2019-02-09T17:22:11.921Z,1.70
2019-02-09T17:27:20.492Z,1.80
2019-02-09T17:32:26.781Z,1.20
2019-02-09T17:37:38.471Z,1.13
2019-02-09T17:42:44.430Z,1.10
2019-02-09T17:47:53.262Z,1.60
2019-02-09T17:53:00.325Z,1.70
2019-02-09T17:58:14.802Z,1.60
2019-02-09T18:03:20.737Z,1.77
2019-02-09T18:08:27.167Z,1.60
2019-02-09T18:13:33.243Z,1.87
2019-02-09T18:18:40.866Z,1.30
2019-02-09T18:23:50.433Z,2.00
2019-02-09T18:28:58.797Z,1.30
2019-02-09T18:34:09.122Z,1.57
2019-02-09T18:39:16.386Z,1.30
2019-02-09T18:44:26.497Z,1.30
2019-02-09T18:49:32.238Z,1.53
2019-02-09T18:54:39.641Z,1.50
2019-02-09T18:59:52.783Z,1.30
2019-02-09T19:05:04.830Z,1.50
2019-02-09T19:10:19.234Z,1.73
2019-02-09T19:15:30.408Z,1.30
2019-02-09T19:20:42.699Z,1.73
2019-02-09T19:25:51.078Z,1.43
2019-02-09T19:31:00.634Z,1.80
2019-02-09T19:36:15.831Z,1.73
2019-02-09T19:41:22.131Z,1.73
2019-02-09T19:46:30.685Z,1.80
2019-02-09T19:51:36.840Z,1.40
2019-02-09T19:56:44.516Z,1.40
2019-02-09T20:01:50.434Z,1.60
2019-02-09T20:07:07.471Z,1.60
2019-02-09T20:12:15.935Z,1.77
2019-02-09T20:17:26.415Z,1.47
2019-02-09T20:22:35.762Z,1.60
2019-02-09T20:27:46.950Z,1.90
2019-02-09T20:32:56.546Z,1.97
2019-02-09T20:38:13.120Z,1.30
2019-02-09T20:43:23.888Z,1.60
2019-02-09T20:48:40.484Z,1.37
2019-02-09T20:53:46.949Z,1.63
2019-02-09T20:58:59.916Z,1.70
2019-02-09T21:04:13.013Z,1.70
2019-02-09T21:09:25.984Z,1.73
2019-02-09T21:14:34.443Z,1.67
2019-02-09T21:19:41.620Z,1.50
2019-02-09T21:24:50.665Z,1.60
2019-02-09T21:29:57.097Z,1.63
2019-02-09T21:35:06.245Z,1.87
2019-02-09T21:40:21.007Z,1.67
2019-02-09T21:45:28.055Z,1.67
2019-02-09T21:50:35.998Z,2.10
2019-02-09T21:55:41.991Z,1.77
2019-02-09T22:00:48.135Z,1.70
2019-02-09T22:06:07.164Z,1.70
2019-02-09T22:11:13.022Z,1.43
2019-02-09T22:16:27.187Z,2.07
2019-02-09T22:21:36.594Z,1.90
2019-02-09T22:26:44.085Z,1.63
2019-02-09T22:31:53.471Z,1.70
2019-02-09T22:37:01.579Z,1.97
2019-02-09T22:42:14.899Z,1.40
2019-02-09T22:47:20.921Z,1.73
2019-02-09T22:52:30.286Z,2.00
2019-02-09T22:57:36.082Z,1.70
2019-02-09T23:02:42.109Z,1.77
2019-02-09T23:07:51.201Z,1.70
2019-02-09T23:12:59.766Z,1.43
2019-02-09T23:18:06.717Z,2.27
2019-02-09T23:23:14.677Z,1.50
2019-02-09T23:28:21.727Z,1.50
2019-02-09T23:33:32.649Z,2.20
2019-02-09T23:38:38.702Z,1.40
2019-02-09T23:43:44.383Z,1.50
2019-02-09T23:54:49.391Z,1.30
2019-02-09T23:59:55.124Z,1.83
